Time;durP1;ratioP1;P1;durP2;ratioP2;P2;SDS_P1;SDS_P2;PMS_P1;PMS_P2;Temp;Humidity;BMP_temperature;BMP_pressure;BME280_temperature;BME280_humidity;BME280_pressure;Samples;Min_cycle;Max_cycle;Signal;HPM_P1;HPM_P2
2023/09/21 00:01:17;;;;;;;0.00;0.00;;;;;;;21.16;63.59;99270.88;4999260;28;20185;-78
2023/09/21 00:03:44;;;;;;;0.00;0.00;;;;;;;21.27;63.21;99277.16;4999485;28;20288;-79
2023/09/21 00:06:10;;;;;;;0.10;0.10;;;;;;;21.28;63.22;99280.72;4998157;28;20723;-78
2023/09/21 00:08:35;;;;;;;0.13;0.13;;;;;;;21.35;62.47;99261.97;4998335;28;20299;-77
2023/09/21 00:11:03;;;;;;;0.00;0.00;;;;;;;21.29;63.00;99269.19;4999251;28;20594;-79
2023/09/21 00:13:28;;;;;;;0.00;0.00;;;;;;;21.21;62.65;99253.75;4999316;28;20208;-78
2023/09/21 00:15:56;;;;;;;0.10;0.10;;;;;;;21.39;62.69;99278.63;5000310;28;20180;-79
2023/09/21 00:18:22;;;;;;;0.00;0.00;;;;;;;21.50;62.03;99272.94;4997655;28;20216;-78
2023/09/21 00:20:54;;;;;;;3.40;1.07;;;;;;;21.43;62.32;99257.16;4999021;28;20184;-79
2023/09/21 00:23:21;;;;;;;0.67;0.53;;;;;;;21.13;62.41;99218.16;4999475;28;20211;-79
2023/09/21 00:25:47;;;;;;;0.00;0.00;;;;;;;21.41;62.20;99250.41;4998102;28;20185;-78
2023/09/21 00:28:14;;;;;;;0.20;0.10;;;;;;;21.44;61.73;99241.25;4997864;28;20689;-79
2023/09/21 00:30:40;;;;;;;0.00;0.00;;;;;;;21.33;62.48;99263.59;4997241;28;20189;-78
2023/09/21 00:33:07;;;;;;;0.00;0.00;;;;;;;21.70;61.75;99273.94;5000128;28;20208;-77
2023/09/21 00:35:33;;;;;;;0.00;0.00;;;;;;;21.35;62.28;99247.31;4999670;28;20181;-78
2023/09/21 00:37:58;;;;;;;0.00;0.00;;;;;;;21.48;62.02;99240.00;4999353;28;20227;-78
2023/09/21 00:40:24;;;;;;;0.00;0.00;;;;;;;21.23;62.61;99226.34;4999303;28;20200;-79
2023/09/21 00:42:51;;;;;;;0.00;0.00;;;;;;;21.31;62.39;99230.69;4997024;28;20584;-79
2023/09/21 00:45:17;;;;;;;0.00;0.00;;;;;;;21.06;62.88;99210.66;4997737;28;20605;-79
2023/09/21 00:47:49;;;;;;;0.00;0.00;;;;;;;21.20;62.71;99218.06;4994510;28;20225;-78
2023/09/21 00:50:19;;;;;;;0.00;0.00;;;;;;;21.19;62.24;99206.16;4998002;28;20276;-79
2023/09/21 00:52:45;;;;;;;0.00;0.00;;;;;;;21.26;62.38;99213.66;4988816;28;20211;-79
2023/09/21 00:55:14;;;;;;;0.00;0.00;;;;;;;21.34;62.78;99229.84;4996731;28;20201;-77
2023/09/21 00:57:41;;;;;;;0.00;0.00;;;;;;;21.30;62.65;99217.19;4992904;28;20239;-77
2023/09/21 01:00:13;;;;;;;0.00;0.00;;;;;;;20.96;63.27;99183.78;4994380;28;20657;-79
2023/09/21 01:02:46;;;;;;;0.00;0.00;;;;;;;21.41;62.40;99225.41;4994732;28;20208;-79
2023/09/21 01:05:13;;;;;;;0.00;0.00;;;;;;;21.25;62.97;99214.84;4994152;28;20193;-78
2023/09/21 01:07:39;;;;;;;0.23;0.23;;;;;;;21.42;62.35;99219.44;4994897;28;20287;-79
2023/09/21 01:10:07;;;;;;;0.00;0.00;;;;;;;21.39;62.34;99215.47;4994266;28;20189;-78
2023/09/21 01:12:35;;;;;;;0.00;0.00;;;;;;;21.44;61.93;99205.13;4995709;28;20217;-79
2023/09/21 01:15:05;;;;;;;0.53;0.53;;;;;;;21.60;61.51;99217.25;4996204;28;20651;-79
2023/09/21 01:17:31;;;;;;;0.00;0.00;;;;;;;21.43;61.44;99190.44;4995982;28;20177;-79
2023/09/21 01:19:57;;;;;;;0.00;0.00;;;;;;;21.30;61.85;99181.88;4995506;28;20548;-79
2023/09/21 01:22:25;;;;;;;0.00;0.00;;;;;;;21.44;61.68;99208.69;4994362;28;20196;-78
2023/09/21 01:24:51;;;;;;;3.40;0.07;;;;;;;21.70;60.95;99193.31;4993847;28;20267;-79
2023/09/21 01:27:17;;;;;;;0.00;0.00;;;;;;;21.79;60.65;99213.03;4995560;28;20205;-77
2023/09/21 01:29:42;;;;;;;0.00;0.00;;;;;;;21.71;60.74;99202.44;4994638;28;20775;-78
2023/09/21 01:32:08;;;;;;;0.10;0.10;;;;;;;21.13;61.13;99146.72;4996330;28;20228;-78
2023/09/21 01:34:36;;;;;;;0.00;0.00;;;;;;;21.45;61.23;99182.50;4994021;28;20296;-78
2023/09/21 01:37:01;;;;;;;0.10;0.10;;;;;;;21.47;61.24;99190.41;4993787;28;20189;-77
2023/09/21 01:39:27;;;;;;;0.43;0.43;;;;;;;21.32;61.50;99170.34;4993984;28;20196;-76
2023/09/21 01:41:53;;;;;;;0.00;0.00;;;;;;;21.38;61.58;99177.00;4993196;28;20204;-78
2023/09/21 01:44:21;;;;;;;0.00;0.00;;;;;;;21.49;61.40;99191.56;4994570;28;20255;-76
2023/09/21 01:46:47;;;;;;;0.00;0.00;;;;;;;21.34;61.50;99174.28;4993610;28;20230;-78
2023/09/21 01:49:12;;;;;;;0.00;0.00;;;;;;;21.40;61.56;99177.38;4993408;28;20188;-79
2023/09/21 01:51:38;;;;;;;0.00;0.00;;;;;;;21.15;61.72;99158.19;4994437;28;20185;-78
2023/09/21 01:54:03;;;;;;;0.00;0.00;;;;;;;21.24;61.78;99155.69;4992822;28;20209;-77
2023/09/21 01:56:29;;;;;;;0.00;0.00;;;;;;;21.37;61.59;99164.31;4994758;28;20220;-78
2023/09/21 01:58:54;;;;;;;0.00;0.00;;;;;;;21.34;61.20;99154.81;4993328;28;20181;-78
2023/09/21 02:01:19;;;;;;;0.00;0.00;;;;;;;21.28;61.51;99144.59;4994288;28;20669;-78
2023/09/21 02:03:45;;;;;;;0.00;0.00;;;;;;;21.41;61.34;99153.97;4994400;28;20208;-77
2023/09/21 02:06:11;;;;;;;0.00;0.00;;;;;;;21.56;60.68;99165.69;4993266;28;20227;-77
2023/09/21 02:08:38;;;;;;;0.00;0.00;;;;;;;21.36;60.78;99118.28;4994231;28;20741;-77
2023/09/21 02:11:05;;;;;;;0.00;0.00;;;;;;;21.44;60.76;99130.88;4993765;28;20185;-78
2023/09/21 02:13:31;;;;;;;0.00;0.00;;;;;;;21.39;61.17;99151.56;4994448;28;20401;-78
2023/09/21 02:15:57;;;;;;;0.00;0.00;;;;;;;21.51;60.59;99147.47;4994033;28;20209;-77
2023/09/21 02:18:22;;;;;;;0.00;0.00;;;;;;;21.39;60.94;99129.34;4994403;28;20259;-77
2023/09/21 02:20:54;;;;;;;0.00;0.00;;;;;;;21.63;60.24;99155.25;4993863;28;20576;-78
2023/09/21 02:23:20;;;;;;;0.00;0.00;;;;;;;21.80;59.56;99141.50;4994413;28;20220;-79
2023/09/21 02:25:46;;;;;;;0.00;0.00;;;;;;;21.85;59.56;99146.63;4993855;28;20189;-79
2023/09/21 02:28:15;;;;;;;0.00;0.00;;;;;;;21.66;59.56;99129.38;4994488;28;20335;-78
2023/09/21 02:30:48;;;;;;;0.00;0.00;;;;;;;21.34;60.04;99112.34;4993034;28;20196;-79
2023/09/21 02:33:16;;;;;;;0.13;0.10;;;;;;;21.72;59.36;99134.50;4994188;28;20205;-79
2023/09/21 02:35:41;;;;;;;0.00;0.00;;;;;;;21.68;59.24;99124.19;4994299;28;20239;-78
2023/09/21 02:38:13;;;;;;;0.00;0.00;;;;;;;21.63;59.50;99113.53;4994507;28;20585;-78
2023/09/21 02:40:40;;;;;;;0.00;0.00;;;;;;;21.74;59.08;99121.75;4992192;28;20574;-78
2023/09/21 02:43:09;;;;;;;0.00;0.00;;;;;;;21.53;59.12;99095.00;4994039;28;20243;-79
2023/09/21 02:45:36;;;;;;;0.00;0.00;;;;;;;21.65;59.09;99102.00;4993110;28;20185;-79
2023/09/21 02:48:02;;;;;;;0.00;0.00;;;;;;;21.50;59.28;99090.28;4994000;28;20207;-78
2023/09/21 02:50:28;;;;;;;0.00;0.00;;;;;;;21.03;60.09;99067.09;4993323;28;20632;-77
2023/09/21 02:53:01;;;;;;;0.00;0.00;;;;;;;21.24;60.10;99091.78;4992653;28;20205;-78
2023/09/21 02:55:27;;;;;;;0.00;0.00;;;;;;;21.12;60.22;99075.72;4993128;28;20192;-79
2023/09/21 02:57:55;;;;;;;0.20;0.20;;;;;;;21.15;60.17;99072.09;4993789;28;20197;-78
2023/09/21 03:00:34;;;;;;;0.10;0.10;;;;;;;21.15;60.04;99068.53;4991966;28;20196;-78
2023/09/21 03:03:01;;;;;;;0.00;0.00;;;;;;;21.45;59.50;99082.44;4993467;28;20204;-79
2023/09/21 03:05:27;;;;;;;0.00;0.00;;;;;;;21.62;58.86;99092.50;4992239;28;20567;-77
2023/09/21 03:07:54;;;;;;;0.63;0.63;;;;;;;21.47;58.67;99068.13;4993397;28;20304;-79
2023/09/21 03:10:20;;;;;;;0.00;0.00;;;;;;;21.42;59.18;99066.59;4992890;28;20656;-79
2023/09/21 03:12:49;;;;;;;0.00;0.00;;;;;;;21.39;59.34;99084.09;4993140;28;20255;-79
2023/09/21 03:15:18;;;;;;;0.00;0.00;;;;;;;20.98;59.67;99043.34;4994417;28;20603;-78
2023/09/21 03:17:44;;;;;;;0.10;0.03;;;;;;;21.45;58.93;99076.09;4992897;28;20278;-78
2023/09/21 03:22:55;;;;;;;0.00;0.00;;;;;;;22.11;56.95;99084.63;4994436;28;20592;-79
2023/09/21 03:25:32;;;;;;;0.00;0.00;;;;;;;22.14;57.08;99097.72;4994909;28;20640;-79
2023/09/21 03:28:08;;;;;;;0.00;0.00;;;;;;;22.06;56.99;99079.56;4992816;28;20197;-79
2023/09/21 03:30:33;;;;;;;0.00;0.00;;;;;;;21.78;57.46;99050.19;4993159;28;20567;-79
2023/09/21 03:32:59;;;;;;;0.00;0.00;;;;;;;21.69;57.76;99052.69;4992853;28;20227;-77
2023/09/21 03:35:26;;;;;;;0.00;0.00;;;;;;;21.91;57.49;99070.63;4992666;28;20199;-78
2023/09/21 03:37:53;;;;;;;0.00;0.00;;;;;;;21.79;57.33;99048.97;4994022;28;20200;-79
2023/09/21 03:40:19;;;;;;;0.00;0.00;;;;;;;21.53;57.79;99021.97;4991864;28;20244;-78
2023/09/21 03:42:44;;;;;;;0.00;0.00;;;;;;;20.78;59.26;98989.63;4993573;28;20216;-79
2023/09/21 03:45:14;;;;;;;0.00;0.00;;;;;;;20.87;59.69;99028.78;4993694;28;20643;-79
2023/09/21 03:47:40;;;;;;;0.00;0.00;;;;;;;21.11;59.54;99038.00;4994001;28;20260;-79
2023/09/21 03:50:11;;;;;;;0.00;0.00;;;;;;;21.67;58.50;99058.66;4992967;28;20208;-77
2023/09/21 03:52:37;;;;;;;0.13;0.13;;;;;;;21.76;58.05;99063.72;4993661;28;20188;-79
2023/09/21 03:55:04;;;;;;;0.00;0.00;;;;;;;21.69;57.83;99033.22;4991877;28;20191;-79
2023/09/21 03:57:30;;;;;;;0.00;0.00;;;;;;;21.54;57.79;99015.97;4991654;28;20658;-79
2023/09/21 03:59:57;;;;;;;0.30;0.30;;;;;;;21.94;57.26;99050.31;4992937;28;20184;-79
2023/09/21 04:02:23;;;;;;;0.53;0.53;;;;;;;21.92;57.30;99029.69;4991753;28;20200;-79
2023/09/21 04:04:52;;;;;;;0.00;0.00;;;;;;;21.76;57.38;99019.22;4992038;28;20185;-77
2023/09/21 04:07:21;;;;;;;0.00;0.00;;;;;;;21.41;57.93;98992.78;4993280;28;20201;-77
2023/09/21 04:09:46;;;;;;;0.10;0.10;;;;;;;21.76;57.54;99024.78;4991256;28;20189;-79
2023/09/21 04:12:13;;;;;;;0.10;0.10;;;;;;;22.34;56.56;99058.81;4992868;28;20661;-78
2023/09/21 04:14:43;;;;;;;0.00;0.00;;;;;;;22.45;56.30;99059.41;4993093;28;20733;-77
2023/09/21 04:17:09;;;;;;;0.00;0.00;;;;;;;21.76;56.95;98991.44;4992675;28;20189;-76
2023/09/21 04:19:35;;;;;;;0.00;0.00;;;;;;;21.63;57.72;98993.22;4991311;28;20720;-78
2023/09/21 04:22:00;;;;;;;0.00;0.00;;;;;;;21.80;57.66;98997.72;4992888;28;20181;-78
2023/09/21 04:24:26;;;;;;;0.30;0.30;;;;;;;21.75;57.64;99006.53;4994106;28;20209;-78
2023/09/21 04:26:51;;;;;;;0.10;0.10;;;;;;;20.98;58.94;98945.38;4992717;28;20196;-79
2023/09/21 04:29:16;;;;;;;0.00;0.00;;;;;;;21.69;58.41;99014.56;4994540;28;20687;-79
2023/09/21 04:31:42;;;;;;;0.20;0.00;;;;;;;21.13;58.82;98959.84;4995605;28;20195;-79
2023/09/21 04:34:07;;;;;;;0.00;0.00;;;;;;;21.57;58.59;99006.03;4997310;28;20200;-79
2023/09/21 04:36:32;;;;;;;0.27;0.27;;;;;;;21.62;58.49;98997.22;4995426;28;20211;-78
2023/09/21 04:38:59;;;;;;;0.10;0.10;;;;;;;21.25;58.89;98964.81;4995613;28;20184;-77
2023/09/21 04:41:25;;;;;;;0.00;0.00;;;;;;;20.84;59.65;98945.56;4995917;28;20196;-79
2023/09/21 04:43:50;;;;;;;0.00;0.00;;;;;;;21.19;59.43;98972.03;4996582;28;20568;-79
2023/09/21 04:46:17;;;;;;;0.00;0.00;;;;;;;21.44;59.10;98980.03;4994642;28;20267;-77
2023/09/21 04:48:42;;;;;;;0.00;0.00;;;;;;;21.20;59.26;98956.94;4995270;28;20205;-77
2023/09/21 04:51:12;;;;;;;0.00;0.00;;;;;;;21.68;58.74;98992.72;4995021;28;20196;-77
2023/09/21 04:53:37;;;;;;;0.00;0.00;;;;;;;21.59;58.54;98982.16;4994105;28;20296;-77
2023/09/21 04:56:03;;;;;;;0.00;0.00;;;;;;;21.47;59.10;98979.19;4995388;28;20730;-77
2023/09/21 04:58:28;;;;;;;0.27;0.27;;;;;;;21.50;59.15;98995.03;4994296;28;20185;-76
2023/09/21 05:00:54;;;;;;;0.00;0.00;;;;;;;21.42;59.18;98980.47;4993773;28;20199;-77
2023/09/21 05:03:19;;;;;;;0.43;0.43;;;;;;;21.18;60.11;98974.03;4995419;28;20197;-77
2023/09/21 05:05:44;;;;;;;0.00;0.00;;;;;;;21.38;59.85;98986.06;4994094;28;20225;-78
2023/09/21 05:08:10;;;;;;;0.00;0.00;;;;;;;21.23;60.22;98979.09;4995023;28;20427;-78
2023/09/21 05:10:35;;;;;;;0.00;0.00;;;;;;;21.59;59.81;99007.19;4994905;28;20185;-79
2023/09/21 05:13:02;;;;;;;0.00;0.00;;;;;;;21.72;59.28;99012.94;4995032;28;20215;-79
2023/09/21 05:15:27;;;;;;;0.00;0.00;;;;;;;21.29;59.47;98960.03;4995256;28;20184;-77
2023/09/21 05:17:53;;;;;;;0.00;0.00;;;;;;;21.34;59.57;98967.88;4993963;28;20181;-79
2023/09/21 05:20:18;;;;;;;0.00;0.00;;;;;;;21.44;59.23;98980.81;4995457;28;20185;-78
2023/09/21 05:22:43;;;;;;;0.00;0.00;;;;;;;21.77;59.36;99015.25;4996276;28;20205;-79
2023/09/21 05:25:09;;;;;;;0.00;0.00;;;;;;;21.71;59.07;98986.34;4995689;28;20565;-79
2023/09/21 05:27:36;;;;;;;0.00;0.00;;;;;;;22.22;58.18;99034.38;4996662;28;20224;-79
2023/09/21 05:30:05;;;;;;;0.00;0.00;;;;;;;22.29;58.18;99022.34;4995301;28;20192;-79
2023/09/21 05:32:34;;;;;;;0.00;0.00;;;;;;;21.96;58.83;99006.16;4994520;28;20192;-79
2023/09/21 05:34:59;;;;;;;0.00;0.00;;;;;;;21.36;59.28;98952.34;4994649;28;20663;-78
2023/09/21 05:37:24;;;;;;;0.57;0.33;;;;;;;21.74;59.08;98995.84;4995806;28;20181;-79
2023/09/21 05:39:51;;;;;;;0.73;0.73;;;;;;;21.60;59.73;98975.41;4994134;28;20216;-77
2023/09/21 05:42:16;;;;;;;0.00;0.00;;;;;;;21.53;60.38;98983.06;4995083;28;20216;-77
2023/09/21 05:44:42;;;;;;;0.40;0.40;;;;;;;21.32;60.65;98973.84;4995757;28;20679;-78
2023/09/21 05:47:08;;;;;;;0.00;0.00;;;;;;;21.23;61.16;98979.09;4990729;28;20232;-78
2023/09/21 05:49:36;;;;;;;0.40;0.40;;;;;;;21.46;61.29;98995.09;4994536;28;20192;-77
2023/09/21 05:52:08;;;;;;;0.00;0.00;;;;;;;21.32;61.13;98962.75;4994457;28;20212;-78
2023/09/21 05:54:35;;;;;;;0.07;0.07;;;;;;;21.47;61.79;99001.44;4992598;28;20240;-79
2023/09/21 05:57:02;;;;;;;0.17;0.17;;;;;;;21.29;62.21;98976.69;4993815;28;20185;-81
2023/09/21 05:59:31;;;;;;;0.00;0.00;;;;;;;21.15;62.42;98954.66;4996386;28;20181;-80
2023/09/21 06:01:57;;;;;;;0.13;0.13;;;;;;;21.61;61.82;98990.09;4992278;28;20212;-80
2023/09/21 06:04:23;;;;;;;0.07;0.07;;;;;;;21.49;61.61;98983.13;4996088;28;20200;-78
2023/09/21 06:06:48;;;;;;;0.00;0.00;;;;;;;22.02;60.78;99011.25;4993047;28;20201;-80
2023/09/21 06:09:18;;;;;;;0.00;0.00;;;;;;;22.33;59.88;99015.50;4988865;28;20189;-80
2023/09/21 06:11:48;;;;;;;0.00;0.00;;;;;;;22.80;58.91;99041.22;4996178;28;20239;-79
2023/09/21 06:14:14;;;;;;;0.00;0.00;;;;;;;23.01;58.17;99050.41;4994541;28;20217;-79
2023/09/21 06:16:41;;;;;;;0.03;0.03;;;;;;;22.37;59.19;98993.16;4994578;28;20271;-77
2023/09/21 06:19:07;;;;;;;0.20;0.20;;;;;;;22.77;59.18;99041.31;4995588;28;20241;-79
2023/09/21 06:21:35;;;;;;;0.20;0.20;;;;;;;23.23;57.54;99056.31;4994551;28;20185;-79
2023/09/21 06:24:01;;;;;;;0.00;0.00;;;;;;;22.94;58.30;99028.25;4994306;28;20209;-79
2023/09/21 06:26:27;;;;;;;1.30;0.67;;;;;;;23.04;58.12;99013.31;4991576;28;20217;-79
2023/09/21 06:28:52;;;;;;;0.00;0.00;;;;;;;23.05;57.89;99006.53;4994444;28;20298;-79
2023/09/21 06:31:21;;;;;;;0.00;0.00;;;;;;;23.57;56.69;99039.22;4995208;28;20189;-79
2023/09/21 06:33:46;;;;;;;0.00;0.00;;;;;;;23.83;56.02;99029.06;4994500;28;20208;-77
2023/09/21 06:36:20;;;;;;;0.13;0.13;;;;;;;23.20;56.43;98990.28;4995243;28;20259;-79
2023/09/21 06:38:47;;;;;;;0.50;0.50;;;;;;;23.39;56.39;98992.22;4994048;28;20211;-79
2023/09/21 06:41:13;;;;;;;0.53;0.20;;;;;;;23.19;57.46;99002.66;4994324;28;20683;-78
2023/09/21 06:43:42;;;;;;;0.30;0.30;;;;;;;22.97;57.74;98961.31;4993341;28;20627;-79
2023/09/21 06:46:08;;;;;;;0.00;0.00;;;;;;;23.29;57.77;99005.22;4995643;28;20181;-79
2023/09/21 06:48:33;;;;;;;1.70;1.70;;;;;;;23.58;57.85;99040.81;4993467;28;20620;-79
2023/09/21 06:50:58;;;;;;;0.00;0.00;;;;;;;23.97;56.10;99029.50;4991926;28;20299;-79
2023/09/21 06:53:24;;;;;;;0.00;0.00;;;;;;;23.86;55.79;99000.28;4995241;28;20213;-78
2023/09/21 06:55:49;;;;;;;0.00;0.00;;;;;;;24.30;55.49;99044.25;4993446;28;20193;-79
2023/09/21 06:58:15;;;;;;;0.07;0.07;;;;;;;24.46;54.91;99048.25;4991766;28;20195;-78
2023/09/21 07:00:41;;;;;;;0.43;0.40;;;;;;;23.74;55.42;98980.28;4988644;28;20217;-79
2023/09/21 07:03:06;;;;;;;0.43;0.43;;;;;;;22.66;57.56;98927.34;4993578;28;20204;-77
2023/09/21 07:05:31;;;;;;;0.20;0.20;;;;;;;22.99;57.98;98958.09;4989987;28;20189;-79
2023/09/21 07:07:57;;;;;;;0.10;0.10;;;;;;;23.53;57.48;99008.63;4994703;28;20575;-79
2023/09/21 07:10:22;;;;;;;0.00;0.00;;;;;;;23.55;57.36;98991.47;4987792;28;20193;-79
2023/09/21 07:12:47;;;;;;;0.00;0.00;;;;;;;23.70;56.63;98973.97;4993084;28;20702;-78
2023/09/21 07:15:13;;;;;;;0.00;0.00;;;;;;;24.04;55.74;99007.00;4994477;28;20185;-79
2023/09/21 07:17:38;;;;;;;0.00;0.00;;;;;;;23.76;56.17;98962.31;4988162;28;20192;-79
2023/09/21 07:20:05;;;;;;;0.00;0.00;;;;;;;23.49;57.54;98974.47;4983567;28;20284;-78
2023/09/21 07:22:30;;;;;;;0.33;0.33;;;;;;;23.46;56.97;98964.19;4992860;28;20185;-79
2023/09/21 07:24:55;;;;;;;0.20;0.20;;;;;;;23.69;56.26;98968.84;4990944;28;21178;-79
2023/09/21 07:27:21;;;;;;;0.20;0.20;;;;;;;23.92;56.08;98995.78;4993632;28;20760;-83
2023/09/21 07:29:47;;;;;;;0.40;0.40;;;;;;;24.02;55.73;98994.72;4994356;28;20177;-81
2023/09/21 07:32:12;;;;;;;0.10;0.10;;;;;;;23.74;55.79;98951.59;4995917;28;20189;-83
2023/09/21 07:34:38;;;;;;;0.50;0.33;;;;;;;24.01;55.19;98968.00;4991807;28;20202;-83
2023/09/21 07:37:03;;;;;;;0.00;0.00;;;;;;;24.24;54.34;98973.38;4993229;28;20185;-78
2023/09/21 07:39:29;;;;;;;0.10;0.10;;;;;;;24.41;54.11;98976.16;4991488;28;20240;-79
2023/09/21 07:41:54;;;;;;;7.47;0.73;;;;;;;24.57;53.60;98979.69;4992529;28;20193;-80
2023/09/21 07:44:22;;;;;;;0.00;0.00;;;;;;;24.86;53.46;99002.00;4991817;28;20200;-80
2023/09/21 07:46:49;;;;;;;0.20;0.20;;;;;;;24.74;54.13;98996.41;4991862;28;20705;-79
2023/09/21 07:49:15;;;;;;;0.67;0.40;;;;;;;24.57;54.16;98978.91;4985140;28;20193;-79
2023/09/21 07:51:41;;;;;;;0.00;0.00;;;;;;;24.70;53.83;98982.50;4992366;28;20186;-78
2023/09/21 07:54:06;;;;;;;0.00;0.00;;;;;;;24.84;54.22;99009.25;4992986;28;20205;-79
2023/09/21 07:56:32;;;;;;;0.00;0.00;;;;;;;25.29;54.77;99025.91;4996034;28;20188;-82
2023/09/21 07:58:58;;;;;;;0.00;0.00;;;;;;;25.52;53.97;99027.59;4995339;28;20177;-83
2023/09/21 08:01:26;;;;;;;0.00;0.00;;;;;;;25.60;53.61;99014.16;4992945;28;20254;-79
2023/09/21 08:03:52;;;;;;;0.00;0.00;;;;;;;25.06;53.73;98951.53;4994825;28;20202;-78
2023/09/21 08:06:19;;;;;;;0.07;0.07;;;;;;;25.08;54.32;98977.03;4996052;28;20551;-78
2023/09/21 08:08:44;;;;;;;0.07;0.07;;;;;;;25.13;54.73;98970.88;4996294;28;20205;-80
2023/09/21 08:11:10;;;;;;;0.00;0.00;;;;;;;24.81;55.04;98952.25;4996283;28;20196;-80
2023/09/21 08:13:35;;;;;;;0.00;0.00;;;;;;;24.94;55.23;98963.47;5001522;28;20693;-80
2023/09/21 08:16:02;;;;;;;0.07;0.07;;;;;;;25.36;54.24;98985.78;5002030;28;20580;-82
2023/09/21 08:18:27;;;;;;;0.00;0.00;;;;;;;25.64;54.31;99010.03;5004378;28;20174;-82
2023/09/21 08:20:52;;;;;;;0.00;0.00;;;;;;;25.57;53.60;98985.09;5000453;28;20560;-84
2023/09/21 08:23:18;;;;;;;1.03;0.90;;;;;;;25.01;53.45;98917.75;5004025;28;20210;-84
2023/09/21 08:25:43;;;;;;;0.00;0.00;;;;;;;24.27;54.90;98883.16;4999569;28;20175;-80
2023/09/21 08:28:09;;;;;;;0.00;0.00;;;;;;;24.71;54.88;98947.75;4998230;28;20222;-80
2023/09/21 08:30:34;;;;;;;0.10;0.10;;;;;;;24.93;54.70;98962.69;4996460;28;20181;-79
2023/09/21 08:32:59;;;;;;;1.90;0.87;;;;;;;25.02;54.18;98953.66;4996481;28;20668;-79
2023/09/21 08:35:25;;;;;;;0.00;0.00;;;;;;;24.78;54.85;98939.19;4996358;28;20181;-78
2023/09/21 08:37:51;;;;;;;0.00;0.00;;;;;;;25.02;54.81;98950.06;4994445;28;20190;-78
2023/09/21 08:40:21;;;;;;;1.77;0.27;;;;;;;25.04;54.59;98954.00;4993853;28;20185;-77
2023/09/21 08:42:51;;;;;;;0.00;0.00;;;;;;;24.96;55.39;98965.81;4996062;28;20300;-78
2023/09/21 08:45:19;;;;;;;0.57;0.57;;;;;;;24.68;55.35;98925.53;4995821;28;20221;-78
2023/09/21 08:47:46;;;;;;;0.00;0.00;;;;;;;24.95;54.51;98947.47;4988600;28;20198;-79
2023/09/21 08:50:13;;;;;;;0.00;0.00;;;;;;;25.07;54.29;98967.09;4993455;28;20558;-79
2023/09/21 08:52:41;;;;;;;0.00;0.00;;;;;;;25.05;54.38;98968.75;4995617;28;20680;-79
2023/09/21 08:55:09;;;;;;;0.50;0.50;;;;;;;25.04;53.36;98950.44;4995536;28;20183;-78
2023/09/21 08:57:36;;;;;;;1.20;0.77;;;;;;;24.80;53.71;98931.13;4994123;28;20614;-78
2023/09/21 09:00:12;;;;;;;0.10;0.10;;;;;;;24.79;54.50;98953.94;4994793;28;20214;-78
2023/09/21 09:02:38;;;;;;;0.63;0.63;;;;;;;24.69;54.68;98944.63;4995435;28;20216;-78
2023/09/21 09:05:07;;;;;;;0.00;0.00;;;;;;;25.33;53.92;98969.91;4995078;28;20182;-78
2023/09/21 09:07:39;;;;;;;0.00;0.00;;;;;;;24.96;54.16;98930.25;4995534;28;20678;-78
2023/09/21 09:10:06;;;;;;;0.00;0.00;;;;;;;25.01;54.22;98945.72;4994781;28;20191;-78
2023/09/21 09:12:32;;;;;;;0.10;0.10;;;;;;;25.11;54.33;98955.78;4993893;28;20181;-79
2023/09/21 09:15:02;;;;;;;0.40;0.40;;;;;;;24.77;55.21;98936.84;4993305;28;20189;-79
2023/09/21 09:17:32;;;;;;;0.00;0.00;;;;;;;24.68;55.15;98950.66;4995731;28;20184;-79
2023/09/21 09:20:01;;;;;;;0.00;0.00;;;;;;;24.63;55.81;98936.03;5000012;28;20186;-81
2023/09/21 09:22:28;;;;;;;0.00;0.00;;;;;;;25.00;55.27;98960.88;5001362;28;20276;-82
2023/09/21 09:24:55;;;;;;;0.00;0.00;;;;;;;25.46;54.16;98979.03;5003799;28;20703;-82
2023/09/21 09:27:20;;;;;;;0.00;0.00;;;;;;;25.59;54.30;98974.22;5000173;28;20266;-83
2023/09/21 09:29:57;;;;;;;0.00;0.00;;;;;;;25.57;55.24;98975.91;5002126;28;20628;-84
2023/09/21 09:32:23;;;;;;;0.20;0.20;;;;;;;25.22;55.32;98942.28;5001204;28;20213;-83
2023/09/21 09:34:49;;;;;;;0.00;0.00;;;;;;;25.02;55.18;98908.94;5000707;28;20657;-78
2023/09/21 09:37:16;;;;;;;0.20;0.20;;;;;;;25.06;55.85;98934.00;4993845;28;20179;-78
2023/09/21 09:39:44;;;;;;;0.40;0.30;;;;;;;25.00;56.05;98924.56;4995008;28;20185;-78
2023/09/21 09:42:14;;;;;;;0.00;0.00;;;;;;;25.03;55.86;98932.09;4994872;28;20195;-79
2023/09/21 09:44:44;;;;;;;0.87;0.87;;;;;;;25.39;55.97;98962.50;4993642;28;20203;-79
2023/09/21 09:47:12;;;;;;;0.20;0.20;;;;;;;25.20;54.96;98939.13;4993816;28;20202;-77
2023/09/21 09:49:39;;;;;;;0.97;0.57;;;;;;;25.05;55.35;98919.25;4993314;28;20182;-79
2023/09/21 09:52:06;;;;;;;0.20;0.20;;;;;;;24.91;55.89;98914.84;4993633;28;20177;-79
2023/09/21 09:54:32;;;;;;;0.23;0.20;;;;;;;25.26;55.51;98936.56;4993869;28;20203;-79
2023/09/21 09:56:59;;;;;;;0.20;0.20;;;;;;;25.69;55.03;98964.72;4994879;28;20643;-80
2023/09/21 09:59:26;;;;;;;0.20;0.20;;;;;;;25.77;54.36;98951.31;4995191;28;20214;-79
2023/09/21 10:01:53;;;;;;;0.20;0.20;;;;;;;25.96;53.69;98958.63;4994664;28;20192;-78
2023/09/21 10:04:19;;;;;;;0.20;0.20;;;;;;;25.84;53.81;98933.47;4993702;28;20700;-79
2023/09/21 10:06:47;;;;;;;1.20;0.50;;;;;;;25.97;53.67;98951.00;4992303;28;20187;-78
2023/09/21 10:09:13;;;;;;;0.40;0.33;;;;;;;26.07;53.53;98953.47;4990430;28;20219;-78
2023/09/21 10:11:46;;;;;;;0.33;0.33;;;;;;;26.29;53.83;98978.66;4984167;28;20545;-79
2023/09/21 10:14:17;;;;;;;0.43;0.43;;;;;;;26.02;54.13;98951.22;4995912;28;20270;-80
2023/09/21 10:16:49;;;;;;;1.07;0.80;;;;;;;26.26;53.82;98970.41;4995248;28;20188;-80
2023/09/21 10:19:16;;;;;;;1.00;0.60;;;;;;;26.62;53.45;98978.34;4993884;28;20185;-78
2023/09/21 10:21:43;;;;;;;1.43;1.33;;;;;;;26.60;52.21;98958.38;4994971;28;20325;-80
2023/09/21 10:24:12;;;;;;;0.00;0.00;;;;;;;26.94;52.18;98979.94;4996033;28;20209;-80
2023/09/21 10:26:40;;;;;;;0.33;0.17;;;;;;;26.81;51.13;98929.56;4995512;28;20177;-81
2023/09/21 10:29:11;;;;;;;0.63;0.40;;;;;;;26.89;51.70;98950.47;4997782;28;20623;-81
2023/09/21 10:31:39;;;;;;;0.00;0.00;;;;;;;25.88;53.91;98900.53;4996764;28;20220;-83
2023/09/21 10:34:07;;;;;;;0.10;0.07;;;;;;;26.65;53.22;98955.78;4998421;28;20238;-82
2023/09/21 10:36:37;;;;;;;0.57;0.57;;;;;;;26.69;53.22;98959.25;4995930;28;20211;-81
2023/09/21 10:39:06;;;;;;;0.83;0.83;;;;;;;26.34;53.25;98915.72;4996721;28;20869;-80
2023/09/21 10:41:32;;;;;;;0.00;0.00;;;;;;;27.03;53.09;98971.59;4994972;28;20276;-78
2023/09/21 10:44:00;;;;;;;0.73;0.70;;;;;;;27.34;52.06;98949.19;4990212;28;20314;-80
2023/09/21 10:46:26;;;;;;;0.60;0.60;;;;;;;26.80;53.05;98919.59;4992944;28;20567;-80
2023/09/21 10:49:13;;;;;;;0.00;0.00;;;;;;;26.68;53.54;98923.28;4995929;28;20627;-80
2023/09/21 10:51:39;;;;;;;0.37;0.27;;;;;;;26.75;52.75;98905.38;4988907;28;20253;-80
2023/09/21 10:54:06;;;;;;;0.00;0.00;;;;;;;26.99;53.21;98920.47;4991805;28;20241;-80
2023/09/21 10:56:36;;;;;;;2.63;2.43;;;;;;;26.89;53.40;98924.47;4995252;28;20173;-79
2023/09/21 10:59:01;;;;;;;0.47;0.47;;;;;;;26.89;53.79;98916.84;4993902;28;20259;-81
2023/09/21 11:01:27;;;;;;;0.00;0.00;;;;;;;27.06;52.65;98914.63;4995170;28;20223;-80
2023/09/21 11:03:53;;;;;;;0.00;0.00;;;;;;;26.95;53.75;98915.00;4993648;28;20288;-80
2023/09/21 11:06:19;;;;;;;6.03;0.77;;;;;;;26.92;52.48;98896.31;4995591;28;20220;-80
2023/09/21 11:08:48;;;;;;;3.57;0.60;;;;;;;26.98;53.33;98891.66;4994899;28;20255;-80
2023/09/21 11:11:14;;;;;;;0.17;0.17;;;;;;;27.31;53.25;98935.28;4993363;28;20185;-80
2023/09/21 11:13:39;;;;;;;0.00;0.00;;;;;;;27.17;53.53;98914.97;4994188;28;20201;-80
2023/09/21 11:16:05;;;;;;;0.50;0.50;;;;;;;26.80;53.08;98888.78;4994002;28;20223;-80
2023/09/21 11:18:31;;;;;;;0.00;0.00;;;;;;;26.48;53.32;98850.78;4993908;28;20196;-80
2023/09/21 11:20:58;;;;;;;0.33;0.30;;;;;;;26.48;53.91;98878.03;4994263;28;20177;-80
2023/09/21 11:23:23;;;;;;;0.00;0.00;;;;;;;26.91;53.07;98889.16;4993288;28;20207;-80
2023/09/21 11:25:49;;;;;;;0.30;0.30;;;;;;;26.70;53.24;98853.53;4994619;28;20554;-80
2023/09/21 11:28:23;;;;;;;0.00;0.00;;;;;;;27.00;52.83;98896.81;4994697;28;20292;-79
2023/09/21 11:30:51;;;;;;;0.00;0.00;;;;;;;26.90;53.50;98884.75;4993752;28;20264;-80
2023/09/21 11:33:19;;;;;;;0.00;0.00;;;;;;;26.99;53.46;98867.19;4994837;28;20197;-80
2023/09/21 11:35:45;;;;;;;0.00;0.00;;;;;;;27.09;52.51;98871.66;4993425;28;20197;-80